Goliath Leader — C6WE5 — position and weather

sailwx.info

Track history (hours):
 
Tides and Currents Weather Stations Pressure Air Temp Water Temp Dewpoint Dewpoint Depression Visibility Wind Speed Wind Dir Waves Ship Positions

Goliath Leader

Last reported at 2018-May-19 22:33 UTC. Time now 2018-Jun-23 14:18 UTC.
Position N 01°31' E 104°38'.
Warning: this ship's position is 34 days out of date.

Length 200 m; draft 9.2 m.

Type: Cargo ship. MMSI: 308369000.

Date/timePositionNaut miles runAvg speedWind from/ knotsBaromVisibWave heightAir tempDewpointWater temp
2018-May-19 22:33N 01°31' E 104°38'317.5
2018-May-19 22:25N 01°30' E 104°36'918.8
2018-May-19 21:57N 01°25' E 104°29'919.4
2018-May-19 21:30N 01°19' E 104°22'918.9
2018-May-19 21:00N 01°16' E 104°13'917.1
2018-May-19 20:30N 01°15' E 104°05'815.5
2018-May-19 20:00N 01°14' E 103°57'816.0
2018-May-19 19:30N 01°11' E 103°50'815.0
2018-May-19 19:00N 01°06' E 103°44'815.2
2018-May-19 18:31N 01°04' E 103°37'815.6
2018-May-19 18:00N 01°08' E 103°30'816.7
2018-May-19 17:30N 01°13' E 103°23'  
Track history (hours):
 
Tides and Currents Weather Stations Pressure Air Temp Water Temp Dewpoint Dewpoint Depression Visibility Wind Speed Wind Dir Waves Ship Positions

Goliath Leader

Last reported at 2018-May-19 22:33 UTC. Time now 2018-Jun-23 14:18 UTC.
Position N 01°31' E 104°38'.
Warning: this ship's position is 34 days out of date.

Length 200 m; draft 9.2 m.

Type: Cargo ship. MMSI: 308369000.

Date/timePositionNaut miles runAvg speedWind from/ knotsBaromVisibWave heightAir tempDewpointWater temp
2018-May-19 22:33N 01°31' E 104°38'317.5
2018-May-19 22:25N 01°30' E 104°36'918.8
2018-May-19 21:57N 01°25' E 104°29'919.4
2018-May-19 21:30N 01°19' E 104°22'918.9
2018-May-19 21:00N 01°16' E 104°13'917.1
2018-May-19 20:30N 01°15' E 104°05'815.5
2018-May-19 20:00N 01°14' E 103°57'816.0
2018-May-19 19:30N 01°11' E 103°50'815.0
2018-May-19 19:00N 01°06' E 103°44'815.2
2018-May-19 18:31N 01°04' E 103°37'815.6
2018-May-19 18:00N 01°08' E 103°30'816.7
2018-May-19 17:30N 01°13' E 103°23'  

Dump ship's entire track history